Time;durP1;ratioP1;P1;durP2;ratioP2;P2;SDS_P1;SDS_P2;PMS_P1;PMS_P2;Temp;Humidity;BMP_temperature;BMP_pressure;BME280_temperature;BME280_humidity;BME280_pressure;Samples;Min_cycle;Max_cycle;Signal;HPM_P1;HPM_P2
2023/01/10 00:02:20;;;;;;;13.52;5.03;;;;;;;9.25;48.06;100840.56;7391280;19;20006;-60
2023/01/10 00:04:46;;;;;;;15.40;4.40;;;;;;;9.15;48.43;100845.59;7389714;19;20509;-60
2023/01/10 00:07:11;;;;;;;14.13;5.07;;;;;;;9.17;48.37;100849.59;7389624;19;20002;-60
2023/01/10 00:09:37;;;;;;;13.50;4.68;;;;;;;9.24;48.13;100860.75;7389185;19;20009;-59
2023/01/10 00:14:47;;;;;;;12.77;4.72;;;;;;;9.19;48.21;100863.69;7390591;19;20011;-60
2023/01/10 00:17:13;;;;;;;12.45;5.00;;;;;;;9.30;47.93;100869.56;7390259;19;20009;-61
2023/01/10 00:19:39;;;;;;;11.13;4.50;;;;;;;9.26;47.90;100876.78;7391297;19;20031;-61
2023/01/10 00:22:07;;;;;;;13.63;4.88;;;;;;;9.34;47.76;100880.56;7389998;19;20022;-60
2023/01/10 00:24:32;;;;;;;12.88;4.28;;;;;;;9.41;47.51;100884.34;7388514;19;20386;-60
2023/01/10 00:26:58;;;;;;;13.88;4.10;;;;;;;9.35;47.73;100899.31;7390084;19;19999;-61
2023/01/10 00:29:26;;;;;;;11.70;4.13;;;;;;;9.32;47.92;100910.06;7386541;19;19999;-60
2023/01/10 00:31:52;;;;;;;12.85;4.20;;;;;;;9.38;47.72;100908.75;7389389;19;20078;-60
2023/01/10 00:34:18;;;;;;;8.70;4.20;;;;;;;9.47;47.32;100923.13;7389435;19;19994;-60
2023/01/10 00:36:46;;;;;;;10.60;4.30;;;;;;;9.56;47.26;100926.56;7395792;19;20015;-59
2023/01/10 00:39:13;;;;;;;13.95;4.65;;;;;;;9.52;47.42;100927.59;7397575;19;20122;-60
2023/01/10 00:44:25;;;;;;;17.52;4.90;;;;;;;9.39;47.75;100929.41;7394273;19;19999;-59
2023/01/10 00:46:51;;;;;;;13.73;4.50;;;;;;;9.33;47.90;100938.91;7396047;19;20374;-59
2023/01/10 00:49:17;;;;;;;12.10;4.45;;;;;;;9.27;48.11;100943.75;7394406;19;20003;-60
2023/01/10 00:51:44;;;;;;;15.20;4.43;;;;;;;9.27;47.88;100941.81;7396714;19;20014;-60
2023/01/10 00:54:11;;;;;;;13.25;4.65;;;;;;;9.35;47.79;100944.81;7394844;19;20078;-60
2023/01/10 00:56:37;;;;;;;9.75;4.10;;;;;;;9.24;47.61;100953.34;7396771;19;20006;-60
2023/01/10 00:59:04;;;;;;;11.77;3.70;;;;;;;9.25;47.66;100957.69;7395557;19;20142;-59
2023/01/10 01:01:30;;;;;;;11.23;4.07;;;;;;;9.30;47.75;100962.16;7396579;19;20331;-59
2023/01/10 01:03:58;;;;;;;15.88;3.80;;;;;;;9.26;47.54;100963.94;7394158;19;20032;-58
2023/01/10 01:06:24;;;;;;;12.30;3.92;;;;;;;9.16;47.93;100965.09;7395764;19;20501;-59
2023/01/10 01:08:50;;;;;;;9.77;3.25;;;;;;;9.17;47.72;100969.41;7393885;19;19991;-59
2023/01/10 01:11:16;;;;;;;10.70;3.33;;;;;;;9.18;47.77;100973.75;7394459;19;20076;-59
2023/01/10 01:13:42;;;;;;;10.82;3.97;;;;;;;9.35;47.33;100980.22;7394616;19;20231;-59
2023/01/10 01:16:08;;;;;;;12.70;3.55;;;;;;;9.24;47.94;100987.97;7393607;19;20002;-59
2023/01/10 01:18:33;;;;;;;10.32;3.28;;;;;;;9.32;47.50;100997.25;7392534;19;19999;-59
2023/01/10 01:21:02;;;;;;;7.47;2.78;;;;;;;9.32;47.59;101008.13;7394289;19;20107;-58
2023/01/10 01:23:28;;;;;;;9.90;2.65;;;;;;;9.19;47.93;101010.75;7392297;19;20498;-59
2023/01/10 01:25:55;;;;;;;8.93;2.60;;;;;;;9.30;47.93;101024.81;7395928;19;20002;-58
2023/01/10 01:28:22;;;;;;;9.90;2.50;;;;;;;9.23;47.88;101033.50;7394062;19;19994;-59
2023/01/10 01:30:48;;;;;;;8.38;2.53;;;;;;;9.25;47.95;101042.13;7395229;19;20006;-59
2023/01/10 01:33:15;;;;;;;9.57;2.65;;;;;;;9.36;47.83;101042.56;7395158;19;19998;-59
2023/01/10 01:35:43;;;;;;;12.27;2.28;;;;;;;9.27;48.01;101048.03;7394803;19;20358;-59
2023/01/10 01:38:08;;;;;;;9.82;2.35;;;;;;;9.40;47.46;101050.88;7394886;19;20419;-59
2023/01/10 01:40:35;;;;;;;10.25;2.45;;;;;;;9.39;47.61;101063.69;7395095;19;20032;-59
2023/01/10 01:43:01;;;;;;;9.45;2.35;;;;;;;9.45;47.52;101058.88;7394171;19;20074;-59
2023/01/10 01:45:36;;;;;;;12.35;2.92;;;;;;;9.42;47.42;101068.50;7393905;19;20387;-59
2023/01/10 01:48:12;;;;;;;10.98;2.88;;;;;;;9.32;47.50;101068.06;7394483;19;20014;-59
2023/01/10 01:50:40;;;;;;;9.30;2.70;;;;;;;9.27;47.66;101078.00;7394140;19;20474;-59
2023/01/10 01:53:21;;;;;;;9.85;2.88;;;;;;;9.26;47.42;101081.84;7393927;19;20368;-59
2023/01/10 01:55:47;;;;;;;10.38;3.03;;;;;;;9.32;47.42;101087.94;7392024;19;20451;-59
2023/01/10 01:58:19;;;;;;;8.30;2.33;;;;;;;9.34;47.39;101099.28;7394295;19;20006;-59
2023/01/10 02:00:45;;;;;;;8.32;2.63;;;;;;;9.26;47.34;101095.47;7394539;19;20003;-59
2023/01/10 02:03:13;;;;;;;11.20;3.10;;;;;;;9.26;47.28;101092.72;7394062;19;19999;-59
2023/01/10 02:05:41;;;;;;;11.43;2.60;;;;;;;9.36;47.38;101107.13;7394589;19;21026;-59
2023/01/10 02:08:07;;;;;;;11.30;2.60;;;;;;;9.43;47.00;101091.91;7393153;19;20003;-59
2023/01/10 02:10:43;;;;;;;7.95;2.58;;;;;;;9.50;46.88;101109.66;7392553;19;20002;-59
2023/01/10 02:13:12;;;;;;;8.82;2.72;;;;;;;9.38;47.06;101111.16;7393120;19;20443;-58
2023/01/10 02:15:38;;;;;;;9.98;2.80;;;;;;;9.38;47.05;101111.16;7394282;19;20030;-59
2023/01/10 02:18:05;;;;;;;9.63;2.65;;;;;;;9.30;47.33;101117.44;7393087;19;20454;-59
2023/01/10 02:20:41;;;;;;;7.82;2.55;;;;;;;9.45;47.11;101116.09;7394044;19;20474;-59
2023/01/10 02:23:40;;;;;;;8.85;2.65;;;;;;;9.43;46.89;101123.78;7392534;19;20027;-59
2023/01/10 02:26:08;;;;;;;9.80;2.40;;;;;;;9.35;47.15;101121.88;7394673;19;20451;-58
2023/01/10 02:29:06;;;;;;;8.57;2.47;;;;;;;9.34;47.05;101123.03;7391770;19;20011;-59
2023/01/10 02:31:50;;;;;;;8.88;2.70;;;;;;;9.38;47.08;101126.69;7393753;19;20078;-59
2023/01/10 02:34:28;;;;;;;10.38;2.80;;;;;;;9.29;47.07;101129.44;7392667;19;19998;-60
2023/01/10 02:37:19;;;;;;;9.20;2.75;;;;;;;9.38;47.11;101138.41;7394033;19;19998;-61
2023/01/10 02:40:02;;;;;;;7.93;2.40;;;;;;;9.30;46.91;101136.50;7393249;19;20007;-60
2023/01/10 02:42:53;;;;;;;8.10;2.22;;;;;;;9.26;47.14;101136.31;7393221;19;20006;-60
2023/01/10 02:45:54;;;;;;;8.93;2.40;;;;;;;9.16;47.00;101141.31;7392570;19;20611;-59
2023/01/10 02:48:20;;;;;;;9.77;2.50;;;;;;;9.15;47.42;101140.53;7389889;19;20005;-60
2023/01/10 02:51:02;;;;;;;12.10;2.58;;;;;;;9.20;47.41;101143.06;7393140;19;19995;-59
2023/01/10 02:53:36;;;;;;;8.10;2.30;;;;;;;9.17;47.38;101142.94;7391436;19;20002;-59
2023/01/10 02:56:23;;;;;;;10.60;2.30;;;;;;;9.14;47.48;101143.56;7391242;19;20074;-61
2023/01/10 02:58:58;;;;;;;13.15;2.60;;;;;;;9.11;47.39;101150.44;7390401;19;20009;-60
2023/01/10 03:01:44;;;;;;;6.68;2.20;;;;;;;9.15;47.14;101156.03;7391976;19;20423;-60
2023/01/10 03:04:28;;;;;;;7.30;2.10;;;;;;;9.15;47.27;101150.59;7391311;19;20006;-62
2023/01/10 03:07:22;;;;;;;9.60;2.22;;;;;;;9.18;46.88;101161.69;7392155;19;20404;-60
2023/01/10 03:09:57;;;;;;;11.68;2.55;;;;;;;9.08;47.57;101156.53;7390466;19;20010;-60
2023/01/10 03:12:48;;;;;;;11.10;2.08;;;;;;;9.08;47.16;101161.97;7392746;19;20027;-60
2023/01/10 03:15:18;;;;;;;9.95;2.75;;;;;;;9.10;47.37;101165.22;7391505;19;20006;-61
2023/01/10 03:17:48;;;;;;;11.00;2.97;;;;;;;9.11;47.46;101172.22;7390595;19;20006;-59
2023/01/10 03:20:19;;;;;;;12.32;2.33;;;;;;;9.07;47.35;101172.09;7391957;19;20003;-58
2023/01/10 03:22:46;;;;;;;12.65;2.30;;;;;;;9.09;47.40;101182.66;7392110;19;20425;-59
2023/01/10 03:25:15;;;;;;;13.40;2.42;;;;;;;9.13;47.41;101185.53;7391696;19;19994;-60
2023/01/10 03:28:10;;;;;;;9.68;2.08;;;;;;;9.18;47.23;101191.63;7390890;19;20002;-59
2023/01/10 03:30:53;;;;;;;13.02;2.80;;;;;;;9.02;47.43;101195.97;7390138;19;20570;-59
2023/01/10 03:33:26;;;;;;;7.93;2.43;;;;;;;9.03;47.60;101192.09;7391309;19;20003;-60
2023/01/10 03:36:21;;;;;;;11.38;2.25;;;;;;;9.08;47.49;101197.38;7390995;19;20022;-58
2023/01/10 03:38:55;;;;;;;10.07;2.72;;;;;;;9.08;47.34;101203.66;7390082;19;20439;-59
2023/01/10 03:41:49;;;;;;;13.77;2.53;;;;;;;9.01;47.34;101210.69;7389222;19;20009;-59
2023/01/10 03:47:26;;;;;;;10.07;2.42;;;;;;;9.00;47.50;101225.41;7390661;19;20008;-59
2023/01/10 03:49:57;;;;;;;13.18;2.75;;;;;;;8.98;47.69;101230.38;7389432;19;20033;-59
2023/01/10 03:52:24;;;;;;;10.27;2.75;;;;;;;8.96;47.76;101243.53;7388621;19;20336;-60
2023/01/10 03:54:50;;;;;;;11.15;2.67;;;;;;;8.94;47.89;101254.72;7390051;19;20014;-59
2023/01/10 03:57:21;;;;;;;11.55;2.40;;;;;;;9.04;47.64;101253.63;7389786;19;20080;-60
2023/01/10 03:59:52;;;;;;;15.00;2.60;;;;;;;8.94;47.97;101259.38;7389646;19;20348;-60
2023/01/10 04:02:18;;;;;;;11.50;2.70;;;;;;;8.98;47.79;101260.31;7390577;19;20012;-59
2023/01/10 04:04:44;;;;;;;9.90;2.38;;;;;;;8.87;47.90;101260.66;7388899;19;20383;-60
2023/01/10 04:07:09;;;;;;;12.77;2.83;;;;;;;8.97;47.86;101264.19;7389817;19;19999;-59
2023/01/10 04:09:35;;;;;;;11.88;2.63;;;;;;;8.83;48.06;101267.84;7393053;19;20521;-60
2023/01/10 04:12:01;;;;;;;14.57;2.60;;;;;;;8.87;47.85;101270.75;7398419;19;20023;-58
2023/01/10 04:14:27;;;;;;;10.93;2.65;;;;;;;8.78;48.25;101264.47;7394844;19;20019;-58
2023/01/10 04:16:54;;;;;;;13.30;2.88;;;;;;;8.76;48.29;101274.88;7397728;19;20006;-59
2023/01/10 04:19:20;;;;;;;14.90;3.05;;;;;;;8.82;48.03;101271.69;7397563;19;19995;-59
2023/01/10 04:21:45;;;;;;;13.73;2.88;;;;;;;8.89;47.84;101271.22;7398254;19;20319;-59
2023/01/10 04:24:11;;;;;;;15.77;2.70;;;;;;;9.03;47.53;101279.22;7394863;19;20327;-60
2023/01/10 04:26:37;;;;;;;12.75;2.65;;;;;;;9.05;47.59;101277.81;7397473;19;20324;-62
2023/01/10 04:29:04;;;;;;;15.32;3.10;;;;;;;9.08;47.50;101282.63;7395035;19;20011;-59
2023/01/10 04:31:31;;;;;;;11.73;2.65;;;;;;;9.09;47.44;101291.59;7397188;19;20050;-59
2023/01/10 04:33:57;;;;;;;14.00;2.70;;;;;;;9.14;47.45;101296.06;7394508;19;20006;-59
2023/01/10 04:36:22;;;;;;;17.95;3.13;;;;;;;9.13;47.59;101295.25;7396707;19;19999;-59
2023/01/10 04:38:48;;;;;;;12.20;2.60;;;;;;;9.02;47.67;101302.94;7396432;19;20463;-60
2023/01/10 04:41:14;;;;;;;12.98;3.05;;;;;;;9.01;47.74;101303.25;7395071;19;20463;-59
2023/01/10 04:43:40;;;;;;;11.63;2.70;;;;;;;8.96;47.84;101309.66;7393678;19;20470;-58
2023/01/10 04:46:05;;;;;;;11.93;2.85;;;;;;;9.00;47.69;101312.53;7395229;19;20014;-59
2023/01/10 04:48:32;;;;;;;13.73;3.08;;;;;;;8.96;47.97;101317.03;7395334;19;20036;-59
2023/01/10 04:50:58;;;;;;;13.70;3.03;;;;;;;8.90;47.97;101317.19;7396362;19;19999;-58
2023/01/10 04:53:23;;;;;;;14.65;2.90;;;;;;;8.77;48.29;101309.16;7395606;19;20022;-58
2023/01/10 04:55:49;;;;;;;12.30;3.13;;;;;;;8.83;47.93;101319.56;7393736;19;20035;-59
2023/01/10 04:58:15;;;;;;;16.23;2.92;;;;;;;8.80;47.90;101322.94;7396301;19;20019;-59
2023/01/10 05:00:40;;;;;;;12.07;2.92;;;;;;;8.87;47.61;101325.97;7394865;19;20005;-60
2023/01/10 05:03:06;;;;;;;13.52;3.15;;;;;;;8.82;47.80;101334.28;7394980;19;19999;-60
2023/01/10 05:05:32;;;;;;;12.73;2.95;;;;;;;8.77;48.02;101339.09;7396438;19;20002;-60
2023/01/10 05:07:58;;;;;;;12.55;2.85;;;;;;;8.78;48.07;101343.41;7393156;19;19990;-60
2023/01/10 05:10:24;;;;;;;10.57;2.50;;;;;;;8.85;47.84;101355.44;7396711;19;19998;-60
2023/01/10 05:12:50;;;;;;;12.32;2.80;;;;;;;8.87;47.56;101355.13;7395427;19;20002;-59
2023/01/10 05:15:16;;;;;;;13.18;3.10;;;;;;;8.88;47.46;101354.81;7395104;19;20006;-59
2023/01/10 05:17:41;;;;;;;10.70;2.65;;;;;;;8.89;47.61;101355.59;7393443;19;19998;-59
2023/01/10 05:20:16;;;;;;;12.02;2.88;;;;;;;8.82;47.64;101352.56;7394776;19;20029;-59
2023/01/10 05:22:42;;;;;;;15.10;3.13;;;;;;;8.84;47.77;101364.72;7394663;19;20017;-60
2023/01/10 05:25:08;;;;;;;14.20;3.22;;;;;;;8.92;47.51;101365.88;7395764;19;19991;-59
2023/01/10 05:27:34;;;;;;;12.38;2.90;;;;;;;8.83;47.57;101367.75;7394226;19;20066;-60
2023/01/10 05:29:59;;;;;;;13.05;2.92;;;;;;;8.89;47.51;101371.94;7393119;19;20007;-60
2023/01/10 05:32:28;;;;;;;13.75;2.85;;;;;;;8.90;47.42;101379.00;7394954;19;20005;-60
2023/01/10 05:34:54;;;;;;;12.60;3.20;;;;;;;8.83;47.47;101390.34;7395095;19;20003;-60
2023/01/10 05:37:20;;;;;;;12.90;3.20;;;;;;;8.78;47.70;101387.78;7395935;19;19994;-60
2023/01/10 05:39:46;;;;;;;18.02;3.55;;;;;;;8.84;47.51;101393.88;7394442;19;20066;-60
2023/01/10 05:42:11;;;;;;;14.73;3.20;;;;;;;8.84;47.39;101405.53;7395300;19;20063;-58
2023/01/10 05:44:37;;;;;;;15.05;3.60;;;;;;;8.90;47.37;101401.56;7392601;19;20402;-58
2023/01/10 05:47:03;;;;;;;12.95;3.10;;;;;;;8.93;47.33;101404.78;7394547;19;20009;-59
2023/01/10 05:49:28;;;;;;;17.23;3.28;;;;;;;8.88;47.28;101403.81;7391631;19;19994;-59
2023/01/10 05:51:54;;;;;;;16.88;3.55;;;;;;;8.85;47.26;101412.59;7394928;19;20506;-59
2023/01/10 05:54:20;;;;;;;10.70;3.05;;;;;;;8.72;47.60;101416.22;7391954;19;20078;-59
2023/01/10 05:56:46;;;;;;;17.20;4.10;;;;;;;8.70;47.69;101419.25;7394512;19;20010;-60
2023/01/10 05:59:11;;;;;;;14.20;4.05;;;;;;;8.79;47.59;101419.31;7393558;19;20388;-60
2023/01/10 06:01:37;;;;;;;15.00;3.83;;;;;;;8.88;47.33;101425.59;7394821;19;20016;-60
2023/01/10 06:04:03;;;;;;;13.98;3.38;;;;;;;8.83;47.27;101428.47;7392810;19;20319;-60
2023/01/10 06:06:29;;;;;;;11.77;3.42;;;;;;;8.92;47.19;101435.88;7393933;19;20003;-60
2023/01/10 06:08:55;;;;;;;16.73;3.70;;;;;;;8.91;47.30;101435.03;7392662;19;20079;-58
2023/01/10 06:11:27;;;;;;;14.15;3.65;;;;;;;9.03;47.07;101437.16;7392270;19;19999;-59
2023/01/10 06:13:54;;;;;;;18.00;4.20;;;;;;;8.99;47.15;101438.94;7393149;19;20007;-59
2023/01/10 06:16:20;;;;;;;13.02;3.30;;;;;;;9.08;46.99;101451.47;7393126;19;20002;-58
2023/01/10 06:18:46;;;;;;;14.93;3.65;;;;;;;9.02;47.03;101438.31;7393302;19;20002;-59
2023/01/10 06:21:11;;;;;;;16.50;3.40;;;;;;;9.07;46.99;101440.88;7392991;19;20013;-59
2023/01/10 06:23:38;;;;;;;19.95;3.70;;;;;;;9.14;46.76;101452.09;7392830;19;20007;-58
2023/01/10 06:26:04;;;;;;;14.90;3.38;;;;;;;9.04;46.94;101466.81;7392840;19;20010;-59
2023/01/10 06:28:30;;;;;;;16.70;3.75;;;;;;;9.10;47.05;101464.75;7393231;19;20067;-59
2023/01/10 06:30:56;;;;;;;12.35;3.33;;;;;;;9.26;46.63;101471.34;7393881;19;20010;-60
2023/01/10 06:33:21;;;;;;;12.45;3.50;;;;;;;9.11;46.94;101466.34;7389883;19;20039;-60
2023/01/10 06:35:47;;;;;;;17.70;4.15;;;;;;;9.19;46.63;101467.50;7393776;19;20344;-59
2023/01/10 06:38:14;;;;;;;12.98;3.60;;;;;;;9.19;46.58;101471.03;7392859;19;20016;-60
2023/01/10 06:40:40;;;;;;;14.13;3.67;;;;;;;9.05;47.11;101483.97;7392562;19;20009;-60
2023/01/10 06:43:05;;;;;;;11.77;4.07;;;;;;;8.90;47.43;101485.97;7392104;19;20006;-60
2023/01/10 06:45:32;;;;;;;16.25;3.92;;;;;;;9.03;47.27;101488.91;7392761;19;20003;-60
2023/01/10 06:47:58;;;;;;;15.13;3.53;;;;;;;9.14;46.87;101492.97;7390479;19;20019;-59
2023/01/10 06:50:24;;;;;;;17.55;3.88;;;;;;;9.25;46.72;101488.06;7391815;19;19998;-60
2023/01/10 06:53:01;;;;;;;14.05;3.10;;;;;;;9.17;46.81;101486.88;7392245;19;20022;-60
2023/01/10 06:55:27;;;;;;;13.00;3.70;;;;;;;9.09;46.71;101495.81;7391250;19;20038;-59
2023/01/10 06:57:58;;;;;;;16.85;3.83;;;;;;;9.18;46.95;101498.56;7392279;19;20482;-60
2023/01/10 07:00:26;;;;;;;15.15;3.60;;;;;;;9.33;46.62;101498.16;7392199;19;20002;-60
2023/01/10 07:02:53;;;;;;;14.15;3.38;;;;;;;9.27;46.86;101505.66;7390772;19;20003;-60
2023/01/10 07:05:20;;;;;;;14.13;3.47;;;;;;;9.26;46.69;101508.69;7391020;19;19998;-60
2023/01/10 07:07:46;;;;;;;16.48;3.58;;;;;;;9.11;46.86;101507.19;7391437;19;20435;-60
2023/01/10 07:10:12;;;;;;;12.95;3.40;;;;;;;9.01;47.23;101511.00;7392208;19;19998;-60
2023/01/10 07:12:37;;;;;;;12.95;3.22;;;;;;;9.08;47.10;101516.00;7392342;19;19994;-59
2023/01/10 07:15:04;;;;;;;13.02;3.33;;;;;;;9.13;46.98;101515.84;7391865;19;20747;-60
2023/01/10 07:17:30;;;;;;;11.55;3.22;;;;;;;8.95;47.34;101512.25;7391399;19;19998;-59
2023/01/10 07:19:56;;;;;;;15.65;3.83;;;;;;;9.00;47.35;101514.03;7392072;19;19999;-59
2023/01/10 07:22:22;;;;;;;13.80;3.55;;;;;;;9.10;46.84;101521.94;7391595;19;20010;-60
2023/01/10 07:24:47;;;;;;;12.50;3.42;;;;;;;8.90;47.20;101521.38;7392798;19;19995;-59
2023/01/10 07:27:13;;;;;;;11.07;3.15;;;;;;;8.98;47.07;101527.97;7390390;19;20018;-59
2023/01/10 07:29:39;;;;;;;14.45;3.72;;;;;;;8.94;47.11;101539.81;7390345;19;20026;-59
2023/01/10 07:32:05;;;;;;;15.88;3.47;;;;;;;8.97;47.05;101541.91;7391369;19;19995;-57
2023/01/10 07:34:31;;;;;;;12.27;3.38;;;;;;;9.04;46.67;101531.38;7389938;19;19998;-59
2023/01/10 07:36:56;;;;;;;14.60;3.75;;;;;;;8.99;46.96;101539.66;7390497;19;20578;-61
2023/01/10 07:39:22;;;;;;;16.92;4.00;;;;;;;8.82;47.53;101538.44;7391450;19;20002;-59
2023/01/10 07:41:49;;;;;;;13.85;3.80;;;;;;;8.94;47.04;101546.03;7391359;19;19990;-60
2023/01/10 07:44:15;;;;;;;12.80;3.47;;;;;;;8.95;47.19;101555.00;7388646;19;20013;-59
2023/01/10 07:46:41;;;;;;;14.27;4.20;;;;;;;8.82;47.46;101551.25;7391226;19;20022;-59
2023/01/10 07:49:07;;;;;;;15.10;4.45;;;;;;;8.94;47.18;101561.59;7389053;19;20014;-59
2023/01/10 07:51:32;;;;;;;18.00;4.60;;;;;;;8.93;47.14;101562.69;7391456;19;20022;-60
2023/01/10 07:53:58;;;;;;;15.95;4.30;;;;;;;8.90;47.15;101564.94;7389359;19;19999;-60
2023/01/10 07:56:24;;;;;;;14.30;4.43;;;;;;;8.90;47.36;101569.56;7387371;19;20031;-59
2023/01/10 07:58:50;;;;;;;17.35;4.93;;;;;;;9.15;46.78;101576.28;7389805;19;20084;-59
2023/01/10 08:01:17;;;;;;;19.23;5.07;;;;;;;9.16;46.90;101577.88;7391201;19;20356;-60
2023/01/10 08:03:42;;;;;;;13.70;4.65;;;;;;;9.26;46.65;101593.16;7389626;19;20018;-60
2023/01/10 08:06:10;;;;;;;15.52;4.75;;;;;;;9.21;46.85;101596.81;7390640;19;20447;-60
2023/01/10 08:08:36;;;;;;;13.98;5.65;;;;;;;9.17;46.86;101595.84;7389161;19;20027;-60
2023/01/10 08:11:02;;;;;;;16.35;4.72;;;;;;;9.06;47.05;101578.16;7390261;19;20110;-60
2023/01/10 08:13:29;;;;;;;16.67;4.93;;;;;;;8.99;47.15;101562.25;7389803;19;20009;-59
2023/01/10 08:15:55;;;;;;;17.20;4.80;;;;;;;9.16;46.97;101566.19;7388897;19;20003;-59
2023/01/10 08:18:22;;;;;;;17.25;4.93;;;;;;;9.02;47.15;101567.06;7389708;19;20328;-60
2023/01/10 08:20:49;;;;;;;16.55;4.88;;;;;;;8.92;47.61;101566.53;7389958;19;20002;-59
2023/01/10 08:23:16;;;;;;;15.38;5.20;;;;;;;8.92;47.33;101569.28;7389988;19;20024;-58
2023/01/10 08:25:42;;;;;;;17.10;4.88;;;;;;;8.99;47.40;101566.91;7390042;19;20012;-59
2023/01/10 08:28:07;;;;;;;17.75;5.10;;;;;;;8.96;47.19;101568.31;7387225;19;20062;-59
2023/01/10 08:30:33;;;;;;;14.75;4.47;;;;;;;8.95;47.35;101566.72;7388362;19;20027;-59
2023/01/10 08:33:03;;;;;;;18.25;5.30;;;;;;;9.02;47.13;101571.72;7389467;19;19998;-60
2023/01/10 08:35:29;;;;;;;14.38;4.97;;;;;;;8.87;47.45;101579.16;7390094;19;20014;-59
2023/01/10 08:37:59;;;;;;;18.70;5.30;;;;;;;8.65;47.85;101573.72;7387528;19;20003;-60
2023/01/10 08:40:25;;;;;;;16.73;5.43;;;;;;;8.69;48.16;101580.94;7390708;19;20006;-59
2023/01/10 08:43:06;;;;;;;18.02;5.10;;;;;;;8.63;47.86;101586.81;7388696;19;20040;-60
2023/01/10 08:45:34;;;;;;;19.35;5.10;;;;;;;8.80;47.73;101591.59;7390238;19;19994;-61
2023/01/10 08:48:00;;;;;;;18.65;4.82;;;;;;;9.04;47.29;101597.50;7388060;19;20010;-60
2023/01/10 08:50:32;;;;;;;18.40;4.97;;;;;;;8.96;47.64;101611.09;7389389;19;20329;-60
2023/01/10 08:52:59;;;;;;;15.45;5.18;;;;;;;8.99;47.70;101621.34;7388492;19;20416;-60
2023/01/10 08:55:26;;;;;;;16.52;4.65;;;;;;;8.91;47.75;101614.72;7387934;19;20459;-60
2023/01/10 08:57:52;;;;;;;18.52;4.57;;;;;;;9.07;47.45;101623.34;7393395;19;20467;-60
2023/01/10 09:00:18;;;;;;;18.15;4.75;;;;;;;9.19;47.21;101622.75;7394752;19;20003;-59
2023/01/10 09:02:44;;;;;;;12.63;3.97;;;;;;;9.38;46.82;101633.44;7395932;19;20011;-59
2023/01/10 09:05:10;;;;;;;18.27;4.85;;;;;;;9.31;47.02;101627.63;7396340;19;20433;-60
2023/01/10 09:07:37;;;;;;;15.20;4.10;;;;;;;9.15;47.29;101630.75;7395575;19;20002;-59
2023/01/10 09:10:03;;;;;;;13.95;4.53;;;;;;;9.25;46.99;101622.31;7392954;19;20007;-60
2023/01/10 09:15:13;;;;;;;16.23;4.93;;;;;;;9.36;47.29;101624.78;7395197;19;20006;-61
2023/01/10 09:17:39;;;;;;;16.50;4.50;;;;;;;9.14;47.57;101633.78;7394734;19;20492;-61
2023/01/10 09:20:08;;;;;;;14.55;4.30;;;;;;;9.24;47.48;101637.03;7395090;19;20002;-60
2023/01/10 09:22:38;;;;;;;14.65;4.10;;;;;;;9.50;46.95;101630.94;7395732;19;20003;-61
2023/01/10 09:25:05;;;;;;;16.27;4.25;;;;;;;9.14;47.50;101633.78;7395801;19;19995;-61
2023/01/10 09:27:31;;;;;;;13.98;4.40;;;;;;;9.22;47.39;101638.50;7395509;19;19999;-59
2023/01/10 09:29:57;;;;;;;19.73;4.78;;;;;;;9.30;47.22;101637.75;7391426;19;20022;-59
2023/01/10 09:32:24;;;;;;;18.08;4.68;;;;;;;9.39;47.04;101635.06;7395040;19;20064;-59
2023/01/10 09:34:49;;;;;;;15.65;4.30;;;;;;;9.33;47.36;101639.81;7394720;19;20525;-59
2023/01/10 09:37:15;;;;;;;16.90;4.65;;;;;;;8.82;48.37;101650.06;7392791;19;20047;-59
2023/01/10 09:39:41;;;;;;;15.07;4.43;;;;;;;8.84;48.72;101641.59;7395342;19;20006;-59
2023/01/10 09:42:27;;;;;;;14.15;4.13;;;;;;;9.03;48.01;101642.22;7394063;19;20522;-59
2023/01/10 09:45:06;;;;;;;15.88;4.30;;;;;;;9.51;47.24;101648.09;7394854;19;20019;-60
2023/01/10 09:47:44;;;;;;;20.50;4.50;;;;;;;9.40;47.34;101636.63;7393444;19;20007;-60
2023/01/10 09:50:10;;;;;;;16.88;4.07;;;;;;;9.44;47.36;101645.81;7393233;19;20090;-60
2023/01/10 09:52:43;;;;;;;16.13;4.10;;;;;;;9.24;47.84;101645.22;7394185;19;20110;-60
2023/01/10 09:55:31;;;;;;;18.70;4.43;;;;;;;9.44;47.38;101643.09;7394176;19;20355;-60
2023/01/10 09:58:00;;;;;;;14.25;4.05;;;;;;;9.49;47.29;101640.22;7393317;19;20414;-60
2023/01/10 10:00:38;;;;;;;13.13;4.07;;;;;;;9.54;47.37;101651.00;7394390;19;20084;-60
2023/01/10 10:04:03;;;;;;;13.77;4.40;;;;;;;9.59;46.95;101659.06;7393386;19;20013;-60
2023/01/10 10:06:28;;;;;;;16.57;4.43;;;;;;;9.72;47.14;101656.56;7390269;19;19999;-61
2023/01/10 10:08:56;;;;;;;18.42;4.40;;;;;;;9.72;47.08;101670.19;7388968;19;19999;-60
2023/01/10 10:11:24;;;;;;;18.73;4.80;;;;;;;9.81;46.83;101680.00;7392625;19;20054;-60
2023/01/10 10:14:05;;;;;;;14.10;4.10;;;;;;;9.88;46.66;101678.75;7392209;19;19995;-60
2023/01/10 10:16:49;;;;;;;14.93;4.70;;;;;;;9.79;46.89;101673.28;7394406;19;19999;-60
2023/01/10 10:19:18;;;;;;;;;;;;;;;9.03;48.37;101682.25;7393214;19;20474;-60
2023/01/10 10:22:04;;;;;;;19.23;5.03;;;;;;;9.52;47.59;101688.66;7392386;19;20249;-60
2023/01/10 10:25:03;;;;;;;13.80;4.07;;;;;;;9.80;47.02;101691.22;7391248;19;20002;-60
2023/01/10 10:27:40;;;;;;;15.35;5.00;;;;;;;9.73;47.09;101682.69;7393204;19;20007;-60
2023/01/10 10:30:40;;;;;;;15.38;5.18;;;;;;;9.59;47.25;101693.69;7391079;19;20343;-60
2023/01/10 10:33:32;;;;;;;15.57;4.85;;;;;;;9.62;47.11;101688.41;7392903;19;19999;-59
2023/01/10 10:36:09;;;;;;;13.52;4.93;;;;;;;9.80;46.80;101680.31;7391616;19;20003;-60
2023/01/10 10:38:42;;;;;;;24.52;5.90;;;;;;;9.73;46.79;101683.50;7391974;19;20471;-60
2023/01/10 10:41:31;;;;;;;18.05;5.70;;;;;;;9.61;47.21;101705.09;7393370;19;20003;-60
2023/01/10 10:44:03;;;;;;;15.80;5.97;;;;;;;9.83;47.14;101687.88;7392236;19;20403;-60
2023/01/10 10:46:30;;;;;;;19.80;6.07;;;;;;;9.78;47.06;101696.19;7392746;19;20003;-60
2023/01/10 10:49:04;;;;;;;17.67;6.43;;;;;;;9.86;46.87;101691.91;7391010;19;20737;-60
2023/01/10 10:51:36;;;;;;;16.65;6.20;;;;;;;9.70;46.66;101691.50;7392795;19;20010;-60
2023/01/10 10:54:02;;;;;;;15.10;6.30;;;;;;;9.41;47.53;101693.56;7389929;19;19998;-60
2023/01/10 10:56:29;;;;;;;21.35;6.40;;;;;;;9.61;47.16;101700.44;7390365;19;20351;-60
2023/01/10 10:58:58;;;;;;;21.70;7.00;;;;;;;9.77;46.85;101694.59;7391898;19;20023;-60
2023/01/10 11:01:25;;;;;;;16.20;6.68;;;;;;;9.85;46.95;101687.56;7392063;19;20002;-60
2023/01/10 11:03:58;;;;;;;17.40;6.78;;;;;;;9.75;46.83;101683.19;7391561;19;20007;-60
2023/01/10 11:06:25;;;;;;;19.17;7.33;;;;;;;9.90;46.56;101690.13;7390081;19;20002;-60
2023/01/10 11:08:55;;;;;;;20.25;7.28;;;;;;;10.08;46.14;101677.38;7389816;19;19995;-60
2023/01/10 11:11:26;;;;;;;20.73;7.60;;;;;;;9.92;46.72;101671.56;7391751;19;20402;-61
2023/01/10 11:13:56;;;;;;;19.77;7.13;;;;;;;10.00;46.50;101677.03;7391742;19;20459;-60
2023/01/10 11:16:32;;;;;;;20.77;7.88;;;;;;;10.00;46.14;101681.66;7391258;19;19998;-61
2023/01/10 11:19:22;;;;;;;20.90;7.32;;;;;;;9.90;46.78;101688.25;7390627;19;20001;-61
2023/01/10 11:21:55;;;;;;;21.70;7.05;;;;;;;9.93;46.58;101684.06;7392302;19;20054;-61
2023/01/10 11:24:28;;;;;;;20.27;7.17;;;;;;;9.98;46.60;101679.28;7390534;19;20058;-60
2023/01/10 11:26:57;;;;;;;18.83;6.70;;;;;;;10.05;46.52;101672.53;7391270;19;20223;-60
2023/01/10 11:29:42;;;;;;;22.55;6.65;;;;;;;10.21;46.09;101676.44;7389280;19;20009;-60
2023/01/10 11:32:14;;;;;;;21.10;6.57;;;;;;;10.25;46.04;101676.59;7392019;19;20003;-60
2023/01/10 11:34:45;;;;;;;17.70;6.00;;;;;;;10.36;46.10;101665.06;7390210;19;20016;-61
2023/01/10 11:37:20;;;;;;;23.70;7.10;;;;;;;10.39;45.73;101671.84;7390860;19;20010;-61
2023/01/10 11:39:46;;;;;;;19.75;6.47;;;;;;;10.48;45.70;101671.84;7390222;19;20035;-61
2023/01/10 11:42:24;;;;;;;14.68;6.25;;;;;;;10.59;45.22;101680.53;7390293;19;20498;-59
2023/01/10 11:44:50;;;;;;;16.98;5.25;;;;;;;10.17;46.34;101672.75;7390827;19;20403;-60
2023/01/10 11:47:19;;;;;;;16.40;4.97;;;;;;;10.48;45.44;101682.75;7388598;19;20037;-60
2023/01/10 11:49:47;;;;;;;21.42;5.60;;;;;;;10.56;45.32;101674.56;7388970;19;20002;-60
2023/01/10 11:52:31;;;;;;;16.25;5.70;;;;;;;10.55;44.64;101670.25;7391173;19;20005;-61